Погода Пимента-Буэнуна неделю

Рондония, Бразилия

15 - 21 июня
  • 15июня
    Сегодня
    +21°
    +35°
    Небольшая облачность
    ВремяПогодаТемператураВлажностьДавлениеВетер, м/сВероятность осадков
    02:00Ясно и безоблачно+24°C61 %742 мм2.3 м/с5 %
    05:00Ясно и безоблачно+22°C73 %742 мм1.8 м/с5 %
    08:00Ясно и безоблачно+24°C67 %744 мм0.6 м/с5 %
    11:00Небольшая облачность+33°C41 %744 мм2.5 м/с5 %
    14:00Небольшая облачность+34°C35 %742 мм2.6 м/с5 %
    17:00Небольшая облачность+33°C50 %741 мм1.0 м/с5 %
    20:00Ясно и безоблачно+27°C58 %742 мм1.8 м/с5 %
    23:00Ясно и безоблачно+24°C70 %742 мм1.8 м/с5 %
  • 16июня
    Воскресенье
    +20°
    +35°
    Ясно и безоблачно
    ВремяПогодаТемператураВлажностьДавлениеВетер, м/сВероятность осадков
    02:00Ясно и безоблачно+24°C74 %742 мм1.9 м/с5 %
    05:00Ясно и безоблачно+22°C76 %742 мм0.5 м/с5 %
    08:00Ясно и безоблачно+24°C72 %744 мм0.8 м/с5 %
    11:00Облачно с прояснениями+32°C42 %744 мм1.8 м/с5 %
    14:00Ясно и безоблачно+34°C33 %742 мм2.1 м/с5 %
    17:00Ясно и безоблачно+33°C49 %741 мм1.2 м/с5 %
    20:00Ясно и безоблачно+27°C59 %741 мм1.1 м/с5 %
    23:00Ясно и безоблачно+24°C67 %741 мм1.3 м/с5 %
  • 17июня
    Понедельник
    +21°
    +35°
    Ясно и безоблачно
    ВремяПогодаТемператураВлажностьДавлениеВетер, м/сВероятность осадков
    02:00Ясно и безоблачно+22°C73 %741 мм1.0 м/с5 %
    05:00Ясно и безоблачно+21°C81 %741 мм1.4 м/с5 %
    08:00Ясно и безоблачно+24°C70 %742 мм0.4 м/с5 %
    11:00Ясно и безоблачно+31°C44 %742 мм0.6 м/с5 %
    14:00Ясно и безоблачно+34°C33 %740 мм1.4 м/с5 %
    17:00Ясно и безоблачно+33°C40 %739 мм1.1 м/с5 %
    20:00Ясно и безоблачно+27°C54 %740 мм1.2 м/с5 %
    23:00Ясно и безоблачно+25°C60 %740 мм1.5 м/с5 %
  • 18июня
    Вторник
    +21°
    +35°
    Ясно и безоблачно
    ВремяПогодаТемператураВлажностьДавлениеВетер, м/сВероятность осадков
    02:00Ясно и безоблачно+23°C71 %740 мм1.8 м/с5 %
    05:00Ясно и безоблачно+22°C76 %740 мм1.5 м/с5 %
    08:00Ясно и безоблачно+24°C68 %741 мм0.2 м/с5 %
    11:00Ясно и безоблачно+32°C44 %741 мм1.6 м/с5 %
    14:00Ясно и безоблачно+34°C36 %739 мм2.5 м/с5 %
    17:00Ясно и безоблачно+33°C45 %738 мм1.4 м/с5 %
    20:00Ясно и безоблачно+28°C52 %740 мм2.1 м/с5 %
    23:00Ясно и безоблачно+26°C64 %740 мм1.7 м/с5 %
Мы используем cookies
Соглашаюсь